sensor_id;sensor_type;location;lat;lon;timestamp;temperature;humidity
17918;DHT22;9084;50.956;3.106;2023-07-24T00:01:30;17.80;99.90
17918;DHT22;9084;50.956;3.106;2023-07-24T00:03:58;17.80;99.90
17918;DHT22;9084;50.956;3.106;2023-07-24T00:06:26;17.80;99.90
17918;DHT22;9084;50.956;3.106;2023-07-24T00:08:54;17.70;99.90
17918;DHT22;9084;50.956;3.106;2023-07-24T00:11:20;17.70;99.90
17918;DHT22;9084;50.956;3.106;2023-07-24T00:13:45;17.70;99.90
17918;DHT22;9084;50.956;3.106;2023-07-24T00:16:11;17.70;99.90
17918;DHT22;9084;50.956;3.106;2023-07-24T00:18:41;17.70;99.90
17918;DHT22;9084;50.956;3.106;2023-07-24T00:21:10;17.70;99.90
17918;DHT22;9084;50.956;3.106;2023-07-24T00:23:38;17.70;99.90
17918;DHT22;9084;50.956;3.106;2023-07-24T00:26:06;17.60;99.90
17918;DHT22;9084;50.956;3.106;2023-07-24T00:28:34;17.70;99.90
17918;DHT22;9084;50.956;3.106;2023-07-24T00:31:02;17.60;99.90
17918;DHT22;9084;50.956;3.106;2023-07-24T00:33:28;17.60;99.90
17918;DHT22;9084;50.956;3.106;2023-07-24T00:35:57;17.60;99.90
17918;DHT22;9084;50.956;3.106;2023-07-24T00:38:26;17.50;99.90
17918;DHT22;9084;50.956;3.106;2023-07-24T00:40:51;17.50;99.90
17918;DHT22;9084;50.956;3.106;2023-07-24T00:43:17;17.50;99.90
17918;DHT22;9084;50.956;3.106;2023-07-24T00:45:44;17.50;99.90
17918;DHT22;9084;50.956;3.106;2023-07-24T00:48:11;17.40;99.90
17918;DHT22;9084;50.956;3.106;2023-07-24T00:50:39;17.40;99.90
17918;DHT22;9084;50.956;3.106;2023-07-24T00:53:07;17.40;99.90
17918;DHT22;9084;50.956;3.106;2023-07-24T00:55:33;17.40;99.90
17918;DHT22;9084;50.956;3.106;2023-07-24T00:58:00;17.40;99.90
17918;DHT22;9084;50.956;3.106;2023-07-24T01:00:26;17.40;99.90
17918;DHT22;9084;50.956;3.106;2023-07-24T01:02:54;17.40;99.90
17918;DHT22;9084;50.956;3.106;2023-07-24T01:05:23;17.40;99.90
17918;DHT22;9084;50.956;3.106;2023-07-24T01:07:55;17.30;99.90
17918;DHT22;9084;50.956;3.106;2023-07-24T01:10:22;17.30;99.90
17918;DHT22;9084;50.956;3.106;2023-07-24T01:18:01;17.20;99.90
17918;DHT22;9084;50.956;3.106;2023-07-24T01:20:29;17.10;99.90
17918;DHT22;9084;50.956;3.106;2023-07-24T01:25:35;17.00;99.90
17918;DHT22;9084;50.956;3.106;2023-07-24T01:28:07;17.00;99.90
17918;DHT22;9084;50.956;3.106;2023-07-24T01:30:35;17.00;99.90
17918;DHT22;9084;50.956;3.106;2023-07-24T01:33:01;16.90;99.90
17918;DHT22;9084;50.956;3.106;2023-07-24T01:35:30;16.80;99.90
17918;DHT22;9084;50.956;3.106;2023-07-24T01:37:57;16.80;99.90
17918;DHT22;9084;50.956;3.106;2023-07-24T01:40:24;16.80;99.90
17918;DHT22;9084;50.956;3.106;2023-07-24T01:42:49;16.80;99.90
17918;DHT22;9084;50.956;3.106;2023-07-24T01:45:16;16.70;99.90
17918;DHT22;9084;50.956;3.106;2023-07-24T01:47:41;16.70;99.90
17918;DHT22;9084;50.956;3.106;2023-07-24T01:50:09;16.70;99.90
17918;DHT22;9084;50.956;3.106;2023-07-24T01:52:35;16.70;99.90
17918;DHT22;9084;50.956;3.106;2023-07-24T01:55:01;16.70;99.90
17918;DHT22;9084;50.956;3.106;2023-07-24T01:57:29;16.70;99.90
17918;DHT22;9084;50.956;3.106;2023-07-24T01:59:54;16.70;99.90
17918;DHT22;9084;50.956;3.106;2023-07-24T02:02:20;16.70;99.90
17918;DHT22;9084;50.956;3.106;2023-07-24T02:04:48;16.60;99.90
17918;DHT22;9084;50.956;3.106;2023-07-24T02:07:14;16.60;99.90
17918;DHT22;9084;50.956;3.106;2023-07-24T02:09:42;16.60;99.90
17918;DHT22;9084;50.956;3.106;2023-07-24T02:12:08;16.60;99.90
17918;DHT22;9084;50.956;3.106;2023-07-24T02:14:33;16.60;99.90
17918;DHT22;9084;50.956;3.106;2023-07-24T02:17:01;16.60;99.90
17918;DHT22;9084;50.956;3.106;2023-07-24T02:19:27;16.60;99.90
17918;DHT22;9084;50.956;3.106;2023-07-24T02:21:52;16.60;99.90
17918;DHT22;9084;50.956;3.106;2023-07-24T02:24:18;16.60;99.90
17918;DHT22;9084;50.956;3.106;2023-07-24T02:26:46;16.60;99.90
17918;DHT22;9084;50.956;3.106;2023-07-24T02:29:14;16.60;99.90
17918;DHT22;9084;50.956;3.106;2023-07-24T02:31:39;16.60;99.90
17918;DHT22;9084;50.956;3.106;2023-07-24T02:34:08;16.60;99.90
17918;DHT22;9084;50.956;3.106;2023-07-24T02:36:35;16.60;99.90
17918;DHT22;9084;50.956;3.106;2023-07-24T02:39:04;16.60;99.90
17918;DHT22;9084;50.956;3.106;2023-07-24T02:41:32;16.60;99.90
17918;DHT22;9084;50.956;3.106;2023-07-24T02:44:01;16.60;99.90
17918;DHT22;9084;50.956;3.106;2023-07-24T02:46:27;16.60;99.90
17918;DHT22;9084;50.956;3.106;2023-07-24T02:48:56;16.70;99.90
17918;DHT22;9084;50.956;3.106;2023-07-24T02:51:21;16.60;99.90
17918;DHT22;9084;50.956;3.106;2023-07-24T02:53:47;16.70;99.90
17918;DHT22;9084;50.956;3.106;2023-07-24T02:56:13;16.70;99.90
17918;DHT22;9084;50.956;3.106;2023-07-24T02:58:40;16.70;99.90
17918;DHT22;9084;50.956;3.106;2023-07-24T03:01:09;16.70;99.90
17918;DHT22;9084;50.956;3.106;2023-07-24T03:03:37;17.20;99.90
17918;DHT22;9084;50.956;3.106;2023-07-24T03:06:03;16.70;99.90
17918;DHT22;9084;50.956;3.106;2023-07-24T03:08:28;16.80;99.90
17918;DHT22;9084;50.956;3.106;2023-07-24T03:10:54;16.80;99.90
17918;DHT22;9084;50.956;3.106;2023-07-24T03:13:24;16.80;99.90
17918;DHT22;9084;50.956;3.106;2023-07-24T03:15:57;16.80;99.90
17918;DHT22;9084;50.956;3.106;2023-07-24T03:18:23;16.80;99.90
17918;DHT22;9084;50.956;3.106;2023-07-24T03:20:49;16.80;99.90
17918;DHT22;9084;50.956;3.106;2023-07-24T03:23:15;16.80;99.90
17918;DHT22;9084;50.956;3.106;2023-07-24T03:25:42;16.90;99.90
17918;DHT22;9084;50.956;3.106;2023-07-24T03:28:10;16.90;99.90
17918;DHT22;9084;50.956;3.106;2023-07-24T03:30:37;16.80;99.90
17918;DHT22;9084;50.956;3.106;2023-07-24T03:33:06;16.80;99.90
17918;DHT22;9084;50.956;3.106;2023-07-24T03:35:32;16.80;99.90
17918;DHT22;9084;50.956;3.106;2023-07-24T03:37:57;16.90;99.90
17918;DHT22;9084;50.956;3.106;2023-07-24T03:40:23;16.90;99.90
17918;DHT22;9084;50.956;3.106;2023-07-24T03:42:49;16.90;99.90
17918;DHT22;9084;50.956;3.106;2023-07-24T03:45:14;16.90;99.90
17918;DHT22;9084;50.956;3.106;2023-07-24T03:47:40;16.90;99.90
17918;DHT22;9084;50.956;3.106;2023-07-24T03:50:10;16.90;99.90
17918;DHT22;9084;50.956;3.106;2023-07-24T03:52:36;16.90;99.90
17918;DHT22;9084;50.956;3.106;2023-07-24T03:55:02;16.90;99.90
17918;DHT22;9084;50.956;3.106;2023-07-24T03:57:27;16.90;99.90
17918;DHT22;9084;50.956;3.106;2023-07-24T03:59:55;16.80;99.90
17918;DHT22;9084;50.956;3.106;2023-07-24T04:02:26;16.80;99.90
17918;DHT22;9084;50.956;3.106;2023-07-24T04:04:51;16.90;99.90
17918;DHT22;9084;50.956;3.106;2023-07-24T04:07:17;16.80;99.90
17918;DHT22;9084;50.956;3.106;2023-07-24T04:09:43;16.80;99.90
17918;DHT22;9084;50.956;3.106;2023-07-24T04:12:08;16.80;99.90
17918;DHT22;9084;50.956;3.106;2023-07-24T04:14:34;16.90;99.90
17918;DHT22;9084;50.956;3.106;2023-07-24T04:16:59;16.90;99.90
17918;DHT22;9084;50.956;3.106;2023-07-24T04:19:25;16.90;99.90
17918;DHT22;9084;50.956;3.106;2023-07-24T04:21:51;16.90;99.90
17918;DHT22;9084;50.956;3.106;2023-07-24T04:24:16;16.90;99.90
17918;DHT22;9084;50.956;3.106;2023-07-24T04:26:42;16.90;99.90
17918;DHT22;9084;50.956;3.106;2023-07-24T04:29:08;16.90;99.90
17918;DHT22;9084;50.956;3.106;2023-07-24T04:31:33;16.90;99.90
17918;DHT22;9084;50.956;3.106;2023-07-24T04:34:01;16.90;99.90
17918;DHT22;9084;50.956;3.106;2023-07-24T04:36:27;16.90;99.90
17918;DHT22;9084;50.956;3.106;2023-07-24T04:38:52;16.90;99.90
17918;DHT22;9084;50.956;3.106;2023-07-24T04:41:20;16.90;99.90
17918;DHT22;9084;50.956;3.106;2023-07-24T04:43:51;16.90;99.90
17918;DHT22;9084;50.956;3.106;2023-07-24T04:46:19;17.00;99.90
17918;DHT22;9084;50.956;3.106;2023-07-24T04:48:44;16.90;99.90
17918;DHT22;9084;50.956;3.106;2023-07-24T04:51:12;16.90;99.90
17918;DHT22;9084;50.956;3.106;2023-07-24T04:53:40;16.90;99.90
17918;DHT22;9084;50.956;3.106;2023-07-24T04:56:11;16.90;99.90
17918;DHT22;9084;50.956;3.106;2023-07-24T04:58:39;16.90;99.90
17918;DHT22;9084;50.956;3.106;2023-07-24T05:01:07;16.80;99.90
17918;DHT22;9084;50.956;3.106;2023-07-24T05:03:33;16.80;99.90
17918;DHT22;9084;50.956;3.106;2023-07-24T05:05:58;16.80;99.90
17918;DHT22;9084;50.956;3.106;2023-07-24T05:08:24;16.80;99.90
17918;DHT22;9084;50.956;3.106;2023-07-24T05:10:58;16.80;99.90
17918;DHT22;9084;50.956;3.106;2023-07-24T05:13:24;16.80;99.90
17918;DHT22;9084;50.956;3.106;2023-07-24T05:15:53;16.80;99.90
17918;DHT22;9084;50.956;3.106;2023-07-24T05:18:18;16.80;99.90
17918;DHT22;9084;50.956;3.106;2023-07-24T05:20:45;16.80;99.90
17918;DHT22;9084;50.956;3.106;2023-07-24T05:23:14;16.90;99.90
17918;DHT22;9084;50.956;3.106;2023-07-24T05:25:40;16.90;99.90
17918;DHT22;9084;50.956;3.106;2023-07-24T05:28:09;17.00;99.90
17918;DHT22;9084;50.956;3.106;2023-07-24T05:30:37;17.10;99.90
17918;DHT22;9084;50.956;3.106;2023-07-24T05:33:07;17.20;99.90
17918;DHT22;9084;50.956;3.106;2023-07-24T05:35:32;17.20;99.90
17918;DHT22;9084;50.956;3.106;2023-07-24T05:37:58;17.30;99.90
17918;DHT22;9084;50.956;3.106;2023-07-24T05:40:24;17.30;99.90
17918;DHT22;9084;50.956;3.106;2023-07-24T05:42:49;17.30;99.90
17918;DHT22;9084;50.956;3.106;2023-07-24T05:45:17;17.40;99.90
17918;DHT22;9084;50.956;3.106;2023-07-24T05:47:43;17.40;99.90
17918;DHT22;9084;50.956;3.106;2023-07-24T05:50:09;17.40;99.90
17918;DHT22;9084;50.956;3.106;2023-07-24T05:52:41;17.50;99.90
17918;DHT22;9084;50.956;3.106;2023-07-24T05:55:07;17.60;99.90
17918;DHT22;9084;50.956;3.106;2023-07-24T05:57:33;17.60;99.90
17918;DHT22;9084;50.956;3.106;2023-07-24T05:59:58;17.70;99.90
17918;DHT22;9084;50.956;3.106;2023-07-24T06:02:26;17.70;99.90
17918;DHT22;9084;50.956;3.106;2023-07-24T06:04:54;17.70;99.90
17918;DHT22;9084;50.956;3.106;2023-07-24T06:07:19;17.80;99.90
17918;DHT22;9084;50.956;3.106;2023-07-24T06:09:47;17.80;99.90
17918;DHT22;9084;50.956;3.106;2023-07-24T06:12:13;17.80;99.90
17918;DHT22;9084;50.956;3.106;2023-07-24T06:14:39;17.80;99.90
17918;DHT22;9084;50.956;3.106;2023-07-24T06:17:05;17.80;99.90
17918;DHT22;9084;50.956;3.106;2023-07-24T06:19:30;17.80;99.90
17918;DHT22;9084;50.956;3.106;2023-07-24T06:21:58;17.80;99.90
17918;DHT22;9084;50.956;3.106;2023-07-24T06:24:24;17.80;99.90
17918;DHT22;9084;50.956;3.106;2023-07-24T06:26:50;17.90;99.90
17918;DHT22;9084;50.956;3.106;2023-07-24T06:29:16;17.90;99.90
17918;DHT22;9084;50.956;3.106;2023-07-24T06:31:41;17.90;99.90
17918;DHT22;9084;50.956;3.106;2023-07-24T06:34:12;18.00;99.90
17918;DHT22;9084;50.956;3.106;2023-07-24T06:36:42;18.00;99.90
17918;DHT22;9084;50.956;3.106;2023-07-24T06:39:10;18.10;99.90
17918;DHT22;9084;50.956;3.106;2023-07-24T06:41:38;18.20;99.90
17918;DHT22;9084;50.956;3.106;2023-07-24T06:44:04;18.30;99.90
17918;DHT22;9084;50.956;3.106;2023-07-24T06:46:29;18.40;99.90
17918;DHT22;9084;50.956;3.106;2023-07-24T06:48:57;18.60;99.90
17918;DHT22;9084;50.956;3.106;2023-07-24T06:51:27;18.50;99.90
17918;DHT22;9084;50.956;3.106;2023-07-24T06:54:00;18.40;99.90
17918;DHT22;9084;50.956;3.106;2023-07-24T06:56:31;18.30;99.90
17918;DHT22;9084;50.956;3.106;2023-07-24T06:58:57;18.20;99.90
17918;DHT22;9084;50.956;3.106;2023-07-24T07:01:22;18.20;99.90
17918;DHT22;9084;50.956;3.106;2023-07-24T07:03:48;18.20;99.90
17918;DHT22;9084;50.956;3.106;2023-07-24T07:06:13;18.30;99.90
17918;DHT22;9084;50.956;3.106;2023-07-24T07:08:41;18.40;99.90
17918;DHT22;9084;50.956;3.106;2023-07-24T07:11:07;18.50;99.90
17918;DHT22;9084;50.956;3.106;2023-07-24T07:13:33;18.50;99.90
17918;DHT22;9084;50.956;3.106;2023-07-24T07:15:58;18.60;99.90
17918;DHT22;9084;50.956;3.106;2023-07-24T07:18:24;18.70;99.90
17918;DHT22;9084;50.956;3.106;2023-07-24T07:20:51;18.70;99.90
17918;DHT22;9084;50.956;3.106;2023-07-24T07:23:17;18.80;99.90
17918;DHT22;9084;50.956;3.106;2023-07-24T07:25:43;19.00;99.90
17918;DHT22;9084;50.956;3.106;2023-07-24T07:28:14;19.20;99.90
17918;DHT22;9084;50.956;3.106;2023-07-24T07:30:40;19.30;99.90
17918;DHT22;9084;50.956;3.106;2023-07-24T07:33:06;19.50;99.90
17918;DHT22;9084;50.956;3.106;2023-07-24T07:35:36;19.60;99.90
17918;DHT22;9084;50.956;3.106;2023-07-24T07:38:03;19.70;99.90
17918;DHT22;9084;50.956;3.106;2023-07-24T07:40:28;19.80;99.90
17918;DHT22;9084;50.956;3.106;2023-07-24T07:42:55;19.90;99.90
17918;DHT22;9084;50.956;3.106;2023-07-24T07:45:22;20.70;99.90
17918;DHT22;9084;50.956;3.106;2023-07-24T07:47:48;19.70;99.90
17918;DHT22;9084;50.956;3.106;2023-07-24T07:50:14;19.60;99.90
17918;DHT22;9084;50.956;3.106;2023-07-24T07:52:42;19.40;99.90
17918;DHT22;9084;50.956;3.106;2023-07-24T07:55:08;19.40;99.90
17918;DHT22;9084;50.956;3.106;2023-07-24T07:57:37;19.40;99.90
17918;DHT22;9084;50.956;3.106;2023-07-24T08:00:03;19.30;99.90
17918;DHT22;9084;50.956;3.106;2023-07-24T08:02:29;19.30;99.90
17918;DHT22;9084;50.956;3.106;2023-07-24T08:04:55;19.30;99.90
17918;DHT22;9084;50.956;3.106;2023-07-24T08:07:23;19.30;99.90
17918;DHT22;9084;50.956;3.106;2023-07-24T08:09:51;19.30;99.90
17918;DHT22;9084;50.956;3.106;2023-07-24T08:12:19;19.40;99.90
17918;DHT22;9084;50.956;3.106;2023-07-24T08:14:46;19.20;99.90
17918;DHT22;9084;50.956;3.106;2023-07-24T08:17:11;19.20;99.90
17918;DHT22;9084;50.956;3.106;2023-07-24T08:19:40;19.10;99.90
17918;DHT22;9084;50.956;3.106;2023-07-24T08:22:13;19.20;99.90
17918;DHT22;9084;50.956;3.106;2023-07-24T08:24:38;19.20;99.90
17918;DHT22;9084;50.956;3.106;2023-07-24T08:27:04;19.30;99.90
17918;DHT22;9084;50.956;3.106;2023-07-24T08:29:32;19.50;99.90
17918;DHT22;9084;50.956;3.106;2023-07-24T08:31:58;19.60;99.90
17918;DHT22;9084;50.956;3.106;2023-07-24T08:34:26;19.80;99.90
17918;DHT22;9084;50.956;3.106;2023-07-24T08:36:52;19.90;99.90
17918;DHT22;9084;50.956;3.106;2023-07-24T08:39:17;20.00;99.90
17918;DHT22;9084;50.956;3.106;2023-07-24T08:41:43;20.10;99.90
17918;DHT22;9084;50.956;3.106;2023-07-24T08:44:09;20.10;99.90
17918;DHT22;9084;50.956;3.106;2023-07-24T08:46:38;20.20;99.90
17918;DHT22;9084;50.956;3.106;2023-07-24T08:49:09;20.30;99.90
17918;DHT22;9084;50.956;3.106;2023-07-24T08:51:43;20.30;99.90
17918;DHT22;9084;50.956;3.106;2023-07-24T08:54:12;20.30;99.90
17918;DHT22;9084;50.956;3.106;2023-07-24T08:56:38;20.20;99.90
17918;DHT22;9084;50.956;3.106;2023-07-24T08:59:08;20.20;99.90
17918;DHT22;9084;50.956;3.106;2023-07-24T09:01:33;20.20;99.90
17918;DHT22;9084;50.956;3.106;2023-07-24T09:04:04;20.30;99.90
17918;DHT22;9084;50.956;3.106;2023-07-24T09:06:30;20.40;99.90
17918;DHT22;9084;50.956;3.106;2023-07-24T09:08:56;20.60;99.90
17918;DHT22;9084;50.956;3.106;2023-07-24T09:11:21;20.80;99.90
17918;DHT22;9084;50.956;3.106;2023-07-24T09:13:52;20.90;99.90
17918;DHT22;9084;50.956;3.106;2023-07-24T09:16:25;21.00;99.90
17918;DHT22;9084;50.956;3.106;2023-07-24T09:18:53;21.20;27.70
17918;DHT22;9084;50.956;3.106;2023-07-24T09:21:29;21.40;19.70
17918;DHT22;9084;50.956;3.106;2023-07-24T09:23:55;21.60;14.00
17918;DHT22;9084;50.956;3.106;2023-07-24T09:26:23;21.80;7.50
17918;DHT22;9084;50.956;3.106;2023-07-24T09:28:55;21.80;1.00
17918;DHT22;9084;50.956;3.106;2023-07-24T09:31:20;21.90;1.00
17918;DHT22;9084;50.956;3.106;2023-07-24T09:33:46;22.00;1.00
17918;DHT22;9084;50.956;3.106;2023-07-24T09:36:14;22.00;1.00
17918;DHT22;9084;50.956;3.106;2023-07-24T09:38:42;22.10;1.00
17918;DHT22;9084;50.956;3.106;2023-07-24T09:41:08;22.00;1.00
17918;DHT22;9084;50.956;3.106;2023-07-24T09:43:37;22.00;1.00
17918;DHT22;9084;50.956;3.106;2023-07-24T09:46:04;22.00;1.00
17918;DHT22;9084;50.956;3.106;2023-07-24T09:48:31;21.90;1.00
17918;DHT22;9084;50.956;3.106;2023-07-24T09:51:00;21.80;1.00
17918;DHT22;9084;50.956;3.106;2023-07-24T09:53:34;21.70;1.00
17918;DHT22;9084;50.956;3.106;2023-07-24T09:56:06;21.70;1.00
17918;DHT22;9084;50.956;3.106;2023-07-24T09:58:38;21.70;1.00
17918;DHT22;9084;50.956;3.106;2023-07-24T10:01:08;21.80;1.00
17918;DHT22;9084;50.956;3.106;2023-07-24T10:03:37;21.80;1.00
17918;DHT22;9084;50.956;3.106;2023-07-24T10:06:04;22.00;1.00
17918;DHT22;9084;50.956;3.106;2023-07-24T10:08:30;22.20;1.00
17918;DHT22;9084;50.956;3.106;2023-07-24T10:11:01;22.40;1.00
17918;DHT22;9084;50.956;3.106;2023-07-24T10:13:27;22.40;1.00
17918;DHT22;9084;50.956;3.106;2023-07-24T10:15:55;22.30;1.00
17918;DHT22;9084;50.956;3.106;2023-07-24T10:18:28;22.10;1.00
17918;DHT22;9084;50.956;3.106;2023-07-24T10:21:06;21.90;1.00
17918;DHT22;9084;50.956;3.106;2023-07-24T10:23:37;21.90;1.00
17918;DHT22;9084;50.956;3.106;2023-07-24T10:26:07;22.10;1.00
17918;DHT22;9084;50.956;3.106;2023-07-24T10:28:40;22.20;1.00
17918;DHT22;9084;50.956;3.106;2023-07-24T10:31:28;22.20;1.00
17918;DHT22;9084;50.956;3.106;2023-07-24T10:34:06;22.20;1.00
17918;DHT22;9084;50.956;3.106;2023-07-24T10:36:36;22.20;1.00
17918;DHT22;9084;50.956;3.106;2023-07-24T10:39:02;22.20;1.00
17918;DHT22;9084;50.956;3.106;2023-07-24T10:41:36;22.30;1.00
17918;DHT22;9084;50.956;3.106;2023-07-24T10:44:05;22.50;1.00
17918;DHT22;9084;50.956;3.106;2023-07-24T10:49:09;22.50;1.00
17918;DHT22;9084;50.956;3.106;2023-07-24T10:51:39;22.20;1.00
17918;DHT22;9084;50.956;3.106;2023-07-24T10:54:07;22.10;1.00
17918;DHT22;9084;50.956;3.106;2023-07-24T10:56:33;22.00;1.00
17918;DHT22;9084;50.956;3.106;2023-07-24T10:59:07;22.00;1.00
17918;DHT22;9084;50.956;3.106;2023-07-24T11:01:32;22.00;1.00
17918;DHT22;9084;50.956;3.106;2023-07-24T11:03:59;21.80;1.00
17918;DHT22;9084;50.956;3.106;2023-07-24T11:06:28;21.70;1.00
17918;DHT22;9084;50.956;3.106;2023-07-24T11:08:55;21.60;1.00
17918;DHT22;9084;50.956;3.106;2023-07-24T11:11:35;21.50;1.00
17918;DHT22;9084;50.956;3.106;2023-07-24T11:14:02;21.60;1.00
17918;DHT22;9084;50.956;3.106;2023-07-24T11:16:30;21.60;1.00
17918;DHT22;9084;50.956;3.106;2023-07-24T11:18:57;21.80;1.00
17918;DHT22;9084;50.956;3.106;2023-07-24T11:21:25;21.90;1.00
17918;DHT22;9084;50.956;3.106;2023-07-24T11:23:57;22.00;1.00
17918;DHT22;9084;50.956;3.106;2023-07-24T11:26:25;22.10;1.00
17918;DHT22;9084;50.956;3.106;2023-07-24T11:28:54;22.20;1.00
17918;DHT22;9084;50.956;3.106;2023-07-24T11:31:19;22.30;1.00
17918;DHT22;9084;50.956;3.106;2023-07-24T11:33:49;22.30;1.00
17918;DHT22;9084;50.956;3.106;2023-07-24T11:36:17;22.30;1.00
17918;DHT22;9084;50.956;3.106;2023-07-24T11:38:47;22.30;1.00
17918;DHT22;9084;50.956;3.106;2023-07-24T11:41:13;22.30;1.00
17918;DHT22;9084;50.956;3.106;2023-07-24T11:43:49;22.10;1.00
17918;DHT22;9084;50.956;3.106;2023-07-24T11:46:30;22.00;1.00
17918;DHT22;9084;50.956;3.106;2023-07-24T11:48:57;21.80;1.00
17918;DHT22;9084;50.956;3.106;2023-07-24T11:51:25;21.80;1.00
17918;DHT22;9084;50.956;3.106;2023-07-24T11:54:03;21.90;1.00
17918;DHT22;9084;50.956;3.106;2023-07-24T11:56:32;22.00;1.00
17918;DHT22;9084;50.956;3.106;2023-07-24T11:58:58;22.20;1.00
17918;DHT22;9084;50.956;3.106;2023-07-24T12:01:33;22.50;1.00
17918;DHT22;9084;50.956;3.106;2023-07-24T12:04:01;22.60;1.00
17918;DHT22;9084;50.956;3.106;2023-07-24T12:06:30;22.70;1.00
17918;DHT22;9084;50.956;3.106;2023-07-24T12:09:05;22.90;1.00
17918;DHT22;9084;50.956;3.106;2023-07-24T12:11:42;23.10;1.00
17918;DHT22;9084;50.956;3.106;2023-07-24T12:14:08;23.30;1.00
17918;DHT22;9084;50.956;3.106;2023-07-24T12:16:34;23.30;1.00
17918;DHT22;9084;50.956;3.106;2023-07-24T12:19:00;23.10;1.00
17918;DHT22;9084;50.956;3.106;2023-07-24T12:21:26;22.80;1.00
17918;DHT22;9084;50.956;3.106;2023-07-24T12:23:51;22.60;1.00
17918;DHT22;9084;50.956;3.106;2023-07-24T12:26:17;22.40;1.00
17918;DHT22;9084;50.956;3.106;2023-07-24T12:28:48;22.50;1.00
17918;DHT22;9084;50.956;3.106;2023-07-24T12:31:13;22.70;1.00
17918;DHT22;9084;50.956;3.106;2023-07-24T12:33:42;22.80;1.00
17918;DHT22;9084;50.956;3.106;2023-07-24T12:36:07;23.00;1.00
17918;DHT22;9084;50.956;3.106;2023-07-24T12:38:33;23.20;1.00
17918;DHT22;9084;50.956;3.106;2023-07-24T12:40:58;23.30;1.00
17918;DHT22;9084;50.956;3.106;2023-07-24T12:43:24;23.40;1.00
17918;DHT22;9084;50.956;3.106;2023-07-24T12:45:50;23.40;1.00
17918;DHT22;9084;50.956;3.106;2023-07-24T12:48:15;23.70;1.00
17918;DHT22;9084;50.956;3.106;2023-07-24T12:50:45;24.00;99.90
17918;DHT22;9084;50.956;3.106;2023-07-24T12:53:10;23.90;99.90
17918;DHT22;9084;50.956;3.106;2023-07-24T12:55:36;23.60;1.00
17918;DHT22;9084;50.956;3.106;2023-07-24T12:58:02;23.20;1.00
17918;DHT22;9084;50.956;3.106;2023-07-24T13:00:28;22.40;1.00
17918;DHT22;9084;50.956;3.106;2023-07-24T13:02:57;21.20;4.90
17918;DHT22;9084;50.956;3.106;2023-07-24T13:05:25;20.30;83.00
17918;DHT22;9084;50.956;3.106;2023-07-24T13:07:50;19.70;99.90
17918;DHT22;9084;50.956;3.106;2023-07-24T13:10:16;19.40;99.90
17918;DHT22;9084;50.956;3.106;2023-07-24T13:12:44;19.60;99.90
17918;DHT22;9084;50.956;3.106;2023-07-24T13:15:09;19.40;99.90
17918;DHT22;9084;50.956;3.106;2023-07-24T13:17:35;19.60;99.90
17918;DHT22;9084;50.956;3.106;2023-07-24T13:20:02;19.80;99.90
17918;DHT22;9084;50.956;3.106;2023-07-24T13:22:28;19.90;99.90
17918;DHT22;9084;50.956;3.106;2023-07-24T13:24:53;20.00;99.90
17918;DHT22;9084;50.956;3.106;2023-07-24T13:27:19;20.20;99.90
17918;DHT22;9084;50.956;3.106;2023-07-24T13:29:45;20.30;93.40
17918;DHT22;9084;50.956;3.106;2023-07-24T13:32:12;20.40;87.40
17918;DHT22;9084;50.956;3.106;2023-07-24T13:34:38;20.50;32.20
17918;DHT22;9084;50.956;3.106;2023-07-24T13:37:04;20.50;1.00
17918;DHT22;9084;50.956;3.106;2023-07-24T13:39:29;20.60;1.00
17918;DHT22;9084;50.956;3.106;2023-07-24T13:41:57;20.80;7.30
17918;DHT22;9084;50.956;3.106;2023-07-24T13:44:24;20.80;1.00
17918;DHT22;9084;50.956;3.106;2023-07-24T13:46:52;20.60;1.00
17918;DHT22;9084;50.956;3.106;2023-07-24T13:49:21;20.40;47.70
17918;DHT22;9084;50.956;3.106;2023-07-24T13:51:46;20.10;92.30
17918;DHT22;9084;50.956;3.106;2023-07-24T13:54:14;20.00;97.70
17918;DHT22;9084;50.956;3.106;2023-07-24T13:56:40;19.90;95.70
17918;DHT22;9084;50.956;3.106;2023-07-24T13:59:05;19.70;99.90
17918;DHT22;9084;50.956;3.106;2023-07-24T14:01:34;19.60;99.90
17918;DHT22;9084;50.956;3.106;2023-07-24T14:03:59;19.60;99.90
17918;DHT22;9084;50.956;3.106;2023-07-24T14:06:26;19.50;99.90
17918;DHT22;9084;50.956;3.106;2023-07-24T14:08:53;19.50;99.90
17918;DHT22;9084;50.956;3.106;2023-07-24T14:11:19;19.30;99.90
17918;DHT22;9084;50.956;3.106;2023-07-24T14:13:49;19.30;99.90
17918;DHT22;9084;50.956;3.106;2023-07-24T14:16:15;19.20;99.90
17918;DHT22;9084;50.956;3.106;2023-07-24T14:18:40;19.00;99.90
17918;DHT22;9084;50.956;3.106;2023-07-24T14:21:06;19.00;99.90
17918;DHT22;9084;50.956;3.106;2023-07-24T14:23:32;19.00;99.90
17918;DHT22;9084;50.956;3.106;2023-07-24T14:25:59;19.20;99.90
17918;DHT22;9084;50.956;3.106;2023-07-24T14:28:25;19.40;99.90
17918;DHT22;9084;50.956;3.106;2023-07-24T14:30:53;19.60;99.90
17918;DHT22;9084;50.956;3.106;2023-07-24T14:33:19;19.70;90.60
17918;DHT22;9084;50.956;3.106;2023-07-24T14:35:44;19.80;96.70
17918;DHT22;9084;50.956;3.106;2023-07-24T14:38:10;20.00;83.80
17918;DHT22;9084;50.956;3.106;2023-07-24T14:40:38;20.00;44.70
17918;DHT22;9084;50.956;3.106;2023-07-24T14:43:05;20.00;58.10
17918;DHT22;9084;50.956;3.106;2023-07-24T14:45:30;20.10;40.70
17918;DHT22;9084;50.956;3.106;2023-07-24T14:47:59;20.20;34.70
17918;DHT22;9084;50.956;3.106;2023-07-24T14:50:27;20.40;38.30
17918;DHT22;9084;50.956;3.106;2023-07-24T14:52:53;20.50;19.70
17918;DHT22;9084;50.956;3.106;2023-07-24T14:55:18;20.60;10.30
17918;DHT22;9084;50.956;3.106;2023-07-24T14:57:44;20.80;33.00
17918;DHT22;9084;50.956;3.106;2023-07-24T15:00:12;21.00;1.00
17918;DHT22;9084;50.956;3.106;2023-07-24T15:02:41;21.10;1.00
17918;DHT22;9084;50.956;3.106;2023-07-24T15:05:07;21.30;1.00
17918;DHT22;9084;50.956;3.106;2023-07-24T15:07:32;21.40;1.00
17918;DHT22;9084;50.956;3.106;2023-07-24T15:09:58;21.50;1.00
17918;DHT22;9084;50.956;3.106;2023-07-24T15:12:26;21.60;1.00
17918;DHT22;9084;50.956;3.106;2023-07-24T15:14:51;21.70;1.00
17918;DHT22;9084;50.956;3.106;2023-07-24T15:17:17;21.70;1.00
17918;DHT22;9084;50.956;3.106;2023-07-24T15:19:43;21.60;1.00
17918;DHT22;9084;50.956;3.106;2023-07-24T15:22:09;21.40;1.00
17918;DHT22;9084;50.956;3.106;2023-07-24T15:24:35;21.40;1.00
17918;DHT22;9084;50.956;3.106;2023-07-24T15:27:03;21.40;1.00
17918;DHT22;9084;50.956;3.106;2023-07-24T15:29:35;21.60;1.00
17918;DHT22;9084;50.956;3.106;2023-07-24T15:32:01;22.00;1.00
17918;DHT22;9084;50.956;3.106;2023-07-24T15:34:26;22.10;1.00
17918;DHT22;9084;50.956;3.106;2023-07-24T15:36:52;22.10;1.00
17918;DHT22;9084;50.956;3.106;2023-07-24T15:39:18;22.00;1.00
17918;DHT22;9084;50.956;3.106;2023-07-24T15:41:44;21.80;1.00
17918;DHT22;9084;50.956;3.106;2023-07-24T15:44:12;21.60;1.00
17918;DHT22;9084;50.956;3.106;2023-07-24T15:46:37;21.50;1.00
17918;DHT22;9084;50.956;3.106;2023-07-24T15:49:07;21.50;1.00
17918;DHT22;9084;50.956;3.106;2023-07-24T15:51:33;21.50;1.00
17918;DHT22;9084;50.956;3.106;2023-07-24T15:53:59;21.70;1.00
17918;DHT22;9084;50.956;3.106;2023-07-24T15:56:25;22.00;1.00
17918;DHT22;9084;50.956;3.106;2023-07-24T15:58:53;22.10;1.00
17918;DHT22;9084;50.956;3.106;2023-07-24T16:01:22;22.20;1.00